Aviation Digital Data Service (ADDS)

Output produced by METARs form (2026 UTC 31 January 2023)
found at http://www.aviationweather.gov/metar/data/
 
KUNV 311953Z 26006KT 10SM SCT032 00/M10 A3017
KUNV 311853Z 28005KT 10SM SCT032 BKN040 M01/M09 A3018
KUNV 311753Z 29007KT 10SM SCT030 BKN038 M01/M08 A3022
KUNV 311653Z 31007KT 10SM BKN028 BKN034 M01/M07 A3024
KUNV 311553Z 33006KT 10SM BKN023 BKN029 M02/M07 A3025
KUNV 311453Z 33008KT 10SM OVC017 M03/M07 A3024
KUNV 311353Z 30010KT 10SM OVC023 M02/M06 A3023
KUNV 311253Z 33007KT 10SM BKN024 BKN031 BKN042 M01/M06 A3021
KUNV 311153Z 34007KT 10SM SCT020 BKN026 OVC050 M01/M05 A3019
KUNV 311053Z 33005KT 10SM BKN022 BKN028 OVC070 M01/M05 A3016
KUNV 311035Z AUTO 31005KT 10SM OVC020 M01/M04 A3016 RMK AO2 T10071042
KUNV 311015Z AUTO 30005KT 10SM SCT020 OVC080 M01/M04 A3016 RMK AO2 T10061044
KUNV 310955Z AUTO 30009KT 10SM BKN070 OVC085 M01/M04 A3016 RMK AO2 T10061045
KUNV 310935Z AUTO 30007KT 10SM OVC070 M01/M04 A3016 RMK AO2 T10061041
KUNV 310915Z AUTO 32005KT 10SM OVC070 00/M04 A3015 RMK AO2 T10051042
KUNV 310855Z AUTO 32003KT 10SM OVC070 00/M04 A3015 RMK AO2 T10051041
KUNV 310835Z AUTO 29004KT 10SM SCT055 OVC070 00/M04 A3015 RMK AO2 T10051041
KUNV 310815Z AUTO 30005KT 10SM BKN055 OVC070 00/M04 A3015 RMK AO2 T10021045
KUNV 310755Z AUTO 31006KT 10SM BKN055 OVC070 00/M04 A3014 RMK AO2 T10011043
KUNV 310735Z AUTO 30005KT 10SM BKN055 OVC070 00/M04 A3013 RMK AO2 T00001036
KUNV 310715Z AUTO 30008KT 10SM BKN021 OVC055 00/M03 A3013 RMK AO2 T00011030
KUNV 310655Z AUTO 32008KT 10SM OVC019 00/M02 A3011 RMK AO2 T00021022
KUNV 310635Z AUTO 31004KT 10SM -SN BKN017 OVC025 00/M01 A3011 RMK AO2 T00031011
KUNV 310615Z AUTO 30004KT 10SM -SN SCT015 SCT025 OVC048 01/M01 A3011 RMK AO2 T00051012
KUNV 310555Z AUTO 29006KT 10SM SCT044 OVC050 01/M01 A3011 RMK AO2 60001 T00071015 10050 20007
KUNV 310535Z AUTO 29006KT 10SM SCT018 SCT042 OVC050 01/M01 A3012 RMK AO2 T00101013
KUNV 310515Z AUTO 30004KT 10SM OVC050 01/M01 A3011 RMK AO2 T00101011
KUNV 310455Z AUTO 31004KT 10SM SCT016 OVC050 01/M01 A3012 RMK AO2 T00131007
KUNV 310435Z AUTO 29004KT 10SM BKN016 OVC034 02/00 A3012 RMK AO2 T00170000
KUNV 310415Z AUTO 29004KT 10SM BKN016 BKN034 OVC041 02/00 A3011 RMK AO2 T00170001
KUNV 310355Z AUTO 29006KT 10SM BKN018 BKN023 OVC029 02/00 A3011 RMK AO2 T00200000
KUNV 310335Z AUTO 29003KT 10SM SCT021 BKN029 OVC038 02/01 A3010 RMK AO2 T00210005
KUNV 310315Z AUTO 28005KT 10SM SCT029 BKN045 OVC075 02/00 A3010 RMK AO2 T00220003
KUNV 310253Z 27008KT 6SM BR SCT023 BKN039 OVC049 02/01 A3010
KUNV 310153Z 28008KT 6SM BR SCT013 BKN025 OVC033 03/02 A3011
KUNV 310053Z 24003KT 3SM -RA BR BKN018 OVC029 04/04 A3010
KUNV 302353Z 30007KT 4SM -DZ BR BKN015 OVC025 05/04 A3009
KUNV 302327Z 30008KT 3SM RA BR OVC019 06/03 A3009
KUNV 302253Z 28004KT 10SM OVC021 07/04 A3008
KUNV 302153Z 25005KT 10SM BKN026 OVC032 07/04 A3006
KUNV 302053Z COR 26009KT 10SM BKN026 BKN033 OVC065 07/04 A3007
KUNV 301953Z 27010G15KT 10SM BKN034 OVC040 08/03 A3006
KUNV 301853Z 26006KT 10SM OVC027 08/04 A3005
KUNV 301753Z 26008KT 10SM OVC022 08/04 A3008
KUNV 301653Z 24009KT 10SM BKN024 07/04 A3012
KUNV 301553Z 20004KT 7SM BKN021 05/05 A3014
KUNV 301453Z 22004KT 7SM VCSH OVC017 04/04 A3016
KUNV 301353Z 27003KT 7SM VCSH OVC010 04/04 A3014
KUNV 301253Z 00000KT 7SM OVC010 03/03 A3012
KUNV 301153Z 00000KT 10SM OVC010 03/03 A3012
KUNV 301053Z 00000KT 10SM OVC010 03/03 A3014
KUNV 301035Z AUTO 00000KT 10SM OVC010 04/04 A3015 RMK AO2 T00350035
KUNV 301015Z AUTO 00000KT 10SM OVC012 04/04 A3015 RMK AO2 T00350035
KUNV 300955Z AUTO 00000KT 10SM OVC014 04/04 A3015 RMK AO2 T00350035
KUNV 300935Z AUTO 00000KT 10SM OVC014 04/04 A3016 RMK AO2 T00360036
KUNV 300915Z AUTO 00000KT 10SM OVC014 04/04 A3014 RMK AO2 T00360036
KUNV 300855Z AUTO 00000KT 10SM OVC014 04/04 A3015 RMK AO2 60001 T00370037
KUNV 300835Z AUTO 25003KT 10SM OVC014 04/04 A3016 RMK AO2 T00360036
KUNV 311754Z 3118/0118 30007KT P6SM SCT030 BKN035 
     FM010400 30005KT 6SM -SN BR BKN035 
     FM011000 30008KT P6SM BKN025